Time;durP1;ratioP1;P1;durP2;ratioP2;P2;SDS_P1;SDS_P2;PMS_P1;PMS_P2;Temp;Humidity;BMP_temperature;BMP_pressure;BME280_temperature;BME280_humidity;BME280_pressure;Samples;Min_cycle;Max_cycle;Signal;HPM_P1;HPM_P2
2022/05/24 00:00:26;;;;;;;1999.90;999.90;;;12.90;99.90;;;;;;5059477;28;20040;-77
2022/05/24 00:02:51;;;;;;;1999.90;999.90;;;13.00;99.90;;;;;;5066586;28;20093;-77
2022/05/24 00:05:17;;;;;;;1999.90;999.90;;;13.00;99.90;;;;;;5065866;28;20535;-78
2022/05/24 00:07:43;;;;;;;1999.90;999.90;;;12.90;99.90;;;;;;5059229;28;20118;-78
2022/05/24 00:10:12;;;;;;;1999.90;999.90;;;12.90;99.90;;;;;;5063984;28;20128;-77
2022/05/24 00:12:39;;;;;;;1999.90;999.90;;;12.90;99.90;;;;;;5055509;28;20048;-77
2022/05/24 00:15:19;;;;;;;1999.90;999.90;;;12.80;99.90;;;;;;5083061;28;20067;-77
2022/05/24 00:17:49;;;;;;;1999.90;999.90;;;12.80;99.90;;;;;;5050823;28;20477;-77
2022/05/24 00:20:15;;;;;;;1999.90;999.90;;;12.80;99.90;;;;;;5053726;28;20051;-77
2022/05/24 00:22:41;;;;;;;1999.90;999.90;;;12.80;99.90;;;;;;5072553;28;20074;-79
2022/05/24 00:25:07;;;;;;;1999.90;999.90;;;12.80;99.90;;;;;;5051696;28;20079;-77
2022/05/24 00:27:33;;;;;;;1999.90;999.90;;;12.80;99.90;;;;;;5071856;28;20043;-78
2022/05/24 00:29:59;;;;;;;1999.90;999.90;;;12.70;99.90;;;;;;5071898;28;20040;-79
2022/05/24 00:32:25;;;;;;;1999.90;999.90;;;12.70;99.90;;;;;;5055091;28;20050;-77
2022/05/24 00:34:50;;;;;;;1999.90;999.90;;;12.70;99.90;;;;;;5056540;28;20093;-77
2022/05/24 00:37:24;;;;;;;1999.90;999.90;;;12.70;99.90;;;;;;5069165;28;20039;-77
2022/05/24 00:39:50;;;;;;;1999.90;999.90;;;12.60;99.90;;;;;;5055977;28;20047;-78
2022/05/24 00:42:26;;;;;;;1999.90;999.90;;;12.60;99.90;;;;;;5054502;28;20032;-77
2022/05/24 00:45:01;;;;;;;1999.90;999.90;;;12.50;99.90;;;;;;5071438;28;20081;-78
2022/05/24 00:47:40;;;;;;;1999.90;999.90;;;12.40;99.90;;;;;;5085331;28;20077;-77
2022/05/24 00:50:14;;;;;;;1999.90;999.90;;;12.40;99.90;;;;;;5072670;28;20096;-78
2022/05/24 00:52:49;;;;;;;1999.90;999.90;;;12.30;99.90;;;;;;5077743;28;20041;-77
2022/05/24 00:55:21;;;;;;;1999.90;999.90;;;12.20;99.90;;;;;;5065462;28;20101;-78
2022/05/24 00:57:59;;;;;;;1999.90;999.90;;;12.10;99.90;;;;;;5072317;28;20396;-76
2022/05/24 01:00:24;;;;;;;1999.90;999.90;;;12.00;99.90;;;;;;5082170;28;20039;-77
2022/05/24 01:02:50;;;;;;;1999.90;999.90;;;11.90;99.90;;;;;;5085958;28;20043;-76
2022/05/24 01:05:20;;;;;;;1999.90;999.90;;;11.90;99.90;;;;;;5068619;28;20036;-76
2022/05/24 01:07:45;;;;;;;1999.90;999.90;;;11.90;99.90;;;;;;5063113;28;20047;-77
2022/05/24 01:10:32;;;;;;;1999.90;999.90;;;11.80;99.90;;;;;;5068679;28;20675;-78
2022/05/24 01:13:03;;;;;;;1999.90;999.90;;;11.80;99.90;;;;;;5056604;28;20044;-77
2022/05/24 01:15:30;;;;;;;1999.90;999.90;;;11.70;99.90;;;;;;5055917;28;20101;-78
2022/05/24 01:17:58;;;;;;;1999.90;999.90;;;11.60;99.90;;;;;;5055040;28;20389;-77
2022/05/24 01:20:25;;;;;;;1999.90;999.90;;;11.60;99.90;;;;;;5055339;28;20126;-77
2022/05/24 01:23:22;;;;;;;1999.90;999.90;;;11.50;99.90;;;;;;5048558;28;20237;-77
2022/05/24 01:26:11;;;;;;;1999.90;999.90;;;11.50;99.90;;;;;;5059443;28;20066;-77
2022/05/24 01:28:55;;;;;;;1999.90;999.90;;;11.40;99.90;;;;;;5073890;28;20092;-76
2022/05/24 01:31:22;;;;;;;1999.90;999.90;;;11.40;99.90;;;;;;5058793;28;20063;-77
2022/05/24 01:36:37;;;;;;;1999.90;999.90;;;11.30;99.90;;;;;;5070469;28;20387;-76
2022/05/24 01:39:08;;;;;;;1999.90;999.90;;;11.30;99.90;;;;;;5072669;28;20051;-76
2022/05/24 01:41:39;;;;;;;1999.90;999.90;;;11.30;99.90;;;;;;5053306;28;20129;-76
2022/05/24 01:44:06;;;;;;;1999.90;999.90;;;11.20;99.90;;;;;;5055590;28;20469;-76
2022/05/24 01:46:40;;;;;;;1999.90;999.90;;;11.20;99.90;;;;;;5070019;28;20123;-76
2022/05/24 01:49:17;;;;;;;1999.90;999.90;;;11.20;99.90;;;;;;5067730;28;20074;-76
2022/05/24 01:51:54;;;;;;;1999.90;999.90;;;11.20;99.90;;;;;;5043766;28;20048;-76
2022/05/24 01:54:21;;;;;;;1999.90;999.90;;;11.20;99.90;;;;;;5053386;28;20045;-76
2022/05/24 01:56:53;;;;;;;1999.90;999.90;;;11.20;99.90;;;;;;5070332;28;20442;-76
2022/05/24 01:59:20;;;;;;;1999.90;999.90;;;11.20;99.90;;;;;;5053837;28;20044;-76
2022/05/24 02:01:50;;;;;;;1999.90;999.90;;;11.30;99.90;;;;;;5054373;28;20028;-77
2022/05/24 02:04:17;;;;;;;1999.90;999.90;;;11.30;99.90;;;;;;5054358;28;20822;-77
2022/05/24 02:06:43;;;;;;;1999.90;999.90;;;11.40;99.90;;;;;;5073610;28;20044;-77
2022/05/24 02:09:10;;;;;;;1999.90;999.90;;;11.40;99.90;;;;;;5076998;28;20054;-76
2022/05/24 02:11:37;;;;;;;1999.90;999.90;;;11.50;99.90;;;;;;5090851;28;20567;-76
2022/05/24 02:14:35;;;;;;;1999.90;999.90;;;11.50;99.90;;;;;;5091916;28;20565;-77
2022/05/24 02:17:07;;;;;;;1999.90;999.90;;;11.60;99.90;;;;;;5070182;28;20056;-77
2022/05/24 02:19:37;;;;;;;1999.90;999.90;;;11.60;99.90;;;;;;5067817;28;20044;-77
2022/05/24 02:22:09;;;;;;;1999.90;999.90;;;11.70;99.90;;;;;;5095996;28;20124;-76
2022/05/24 02:24:35;;;;;;;1999.90;999.90;;;11.70;99.90;;;;;;5041958;28;20139;-77
2022/05/24 02:27:03;;;;;;;1999.90;999.90;;;11.80;99.90;;;;;;5046717;28;20134;-76
2022/05/24 02:29:29;;;;;;;1999.90;999.90;;;11.80;99.90;;;;;;5070472;28;20048;-76
2022/05/24 02:31:54;;;;;;;1999.90;999.90;;;11.80;99.90;;;;;;5051734;28;20041;-76
2022/05/24 02:34:20;;;;;;;1999.90;999.90;;;11.90;99.90;;;;;;5048800;28;20036;-77
2022/05/24 02:36:45;;;;;;;1999.90;999.90;;;11.90;99.90;;;;;;5050168;28;20044;-76
2022/05/24 02:39:11;;;;;;;1999.90;999.90;;;11.90;99.90;;;;;;5056520;28;20037;-76
2022/05/24 02:41:37;;;;;;;1999.90;999.90;;;11.90;99.90;;;;;;5024293;28;20123;-76
2022/05/24 02:44:07;;;;;;;1999.90;999.90;;;12.00;99.90;;;;;;5034672;28;20071;-76
2022/05/24 02:46:35;;;;;;;1999.90;999.90;;;12.00;99.90;;;;;;5047810;28;20050;-77
2022/05/24 02:49:02;;;;;;;1999.90;999.90;;;12.10;99.90;;;;;;5031321;28;20047;-76
2022/05/24 02:51:28;;;;;;;1999.90;999.90;;;12.10;99.90;;;;;;5044733;28;20047;-77
2022/05/24 02:53:54;;;;;;;1999.90;999.90;;;12.10;99.90;;;;;;5038021;28;20409;-77
2022/05/24 02:56:20;;;;;;;1999.90;999.90;;;12.20;99.90;;;;;;5046082;28;20054;-76
2022/05/24 02:58:46;;;;;;;1999.90;999.90;;;12.20;99.90;;;;;;5045920;28;20051;-77
2022/05/24 03:01:18;;;;;;;1999.90;999.90;;;12.30;99.90;;;;;;5058807;28;20493;-77
2022/05/24 03:03:44;;;;;;;1999.90;999.90;;;12.30;99.90;;;;;;5032075;28;20048;-76
2022/05/24 03:06:11;;;;;;;1999.90;999.90;;;12.30;99.90;;;;;;5030239;28;20558;-76
2022/05/24 03:11:21;;;;;;;1999.90;999.90;;;12.40;99.90;;;;;;5028469;28;20041;-76
2022/05/24 03:16:30;;;;;;;1999.90;999.90;;;12.50;99.90;;;;;;5038604;28;20055;-76
2022/05/24 03:18:56;;;;;;;1999.90;999.90;;;12.50;99.90;;;;;;5056594;28;20414;-77
2022/05/24 03:21:22;;;;;;;1999.90;999.90;;;12.60;99.90;;;;;;5057090;28;20187;-79
2022/05/24 03:23:47;;;;;;;1999.90;999.90;;;12.60;99.90;;;;;;5076470;28;20679;-76
2022/05/24 03:26:14;;;;;;;1999.90;999.90;;;12.70;99.90;;;;;;5078067;28;20452;-77
2022/05/24 03:28:41;;;;;;;1999.90;999.90;;;12.70;99.90;;;;;;5067207;28;20055;-77
2022/05/24 03:31:08;;;;;;;1999.90;999.90;;;12.70;99.90;;;;;;5065380;28;20123;-77
2022/05/24 03:33:34;;;;;;;1999.90;999.90;;;12.80;99.90;;;;;;5065451;28;20462;-77
2022/05/24 03:36:00;;;;;;;1999.90;999.90;;;12.80;99.90;;;;;;5074339;28;20086;-77
2022/05/24 03:38:28;;;;;;;1999.90;999.90;;;12.80;99.90;;;;;;5075183;28;20051;-77
2022/05/24 03:40:54;;;;;;;1999.90;999.90;;;12.90;99.90;;;;;;5080917;28;20071;-77
2022/05/24 03:43:20;;;;;;;1999.90;999.90;;;12.90;99.90;;;;;;5046503;28;20040;-77
2022/05/24 03:45:47;;;;;;;1999.90;999.90;;;12.90;99.90;;;;;;5051540;28;20656;-76
2022/05/24 03:48:13;;;;;;;1999.90;999.90;;;12.90;99.90;;;;;;5058771;28;20044;-76
2022/05/24 03:50:39;;;;;;;1999.90;999.90;;;13.00;99.90;;;;;;5088142;28;20044;-77
2022/05/24 03:53:05;;;;;;;1999.90;999.90;;;13.00;99.90;;;;;;5058710;28;20047;-76
2022/05/24 03:55:30;;;;;;;1999.90;999.90;;;13.00;99.90;;;;;;5067489;28;20063;-77
2022/05/24 03:58:02;;;;;;;1999.90;999.90;;;13.00;99.90;;;;;;5053811;28;20092;-78
2022/05/24 04:00:40;;;;;;;1999.90;999.90;;;13.10;99.90;;;;;;5051748;28;20501;-78
2022/05/24 04:03:06;;;;;;;1999.90;999.90;;;13.10;99.90;;;;;;5052831;28;20064;-79
2022/05/24 04:05:33;;;;;;;1999.90;999.90;;;13.10;99.90;;;;;;5053367;28;20556;-78
2022/05/24 04:08:00;;;;;;;1999.90;999.90;;;13.10;99.90;;;;;;5055480;28;20051;-77
2022/05/24 04:10:26;;;;;;;1999.90;999.90;;;13.10;99.90;;;;;;5051247;28;20499;-77
2022/05/24 04:12:52;;;;;;;1999.90;999.90;;;13.20;99.90;;;;;;5068785;28;20050;-77
2022/05/24 04:15:18;;;;;;;1999.90;999.90;;;13.20;99.90;;;;;;5067666;28;20053;-78
2022/05/24 04:17:46;;;;;;;1999.90;999.90;;;13.20;99.90;;;;;;5053061;28;20044;-77
2022/05/24 04:20:12;;;;;;;1999.90;999.90;;;13.20;99.90;;;;;;5070162;28;20102;-76
2022/05/24 04:22:38;;;;;;;1999.90;999.90;;;13.20;99.90;;;;;;5051556;28;20036;-76
2022/05/24 04:25:06;;;;;;;1999.90;999.90;;;13.30;99.90;;;;;;5080546;28;20462;-77
2022/05/24 04:27:32;;;;;;;1999.90;999.90;;;13.20;99.90;;;;;;5072270;28;20392;-78
2022/05/24 04:29:57;;;;;;;1999.90;999.90;;;13.20;99.90;;;;;;5053757;28;20040;-77
2022/05/24 04:32:23;;;;;;;1999.90;999.90;;;13.30;99.90;;;;;;5055797;28;20494;-76
2022/05/24 04:34:49;;;;;;;1999.90;999.90;;;13.30;99.90;;;;;;5081039;28;20118;-78
2022/05/24 04:37:14;;;;;;;1999.90;999.90;;;13.30;99.90;;;;;;5079477;28;20062;-77
2022/05/24 04:39:40;;;;;;;1999.90;999.90;;;13.30;99.90;;;;;;5072117;28;20040;-77
2022/05/24 04:42:24;;;;;;;1999.90;999.90;;;13.30;99.90;;;;;;5063361;28;20036;-77
2022/05/24 04:44:56;;;;;;;1999.90;999.90;;;13.30;99.90;;;;;;5066489;28;20068;-77
2022/05/24 04:47:24;;;;;;;1999.90;999.90;;;13.30;99.90;;;;;;5055419;28;20111;-76
2022/05/24 04:49:55;;;;;;;1999.90;999.90;;;13.30;99.90;;;;;;5052018;28;20044;-77
2022/05/24 04:52:26;;;;;;;1999.90;999.90;;;13.30;99.90;;;;;;5069087;28;20044;-77
2022/05/24 04:54:52;;;;;;;1999.90;999.90;;;13.30;99.90;;;;;;5092197;28;20039;-77
2022/05/24 04:57:19;;;;;;;1999.90;999.90;;;13.30;99.90;;;;;;5073400;28;20044;-77
2022/05/24 04:59:46;;;;;;;1999.90;999.90;;;13.30;99.90;;;;;;5057655;28;20401;-77
2022/05/24 05:02:12;;;;;;;1999.90;999.90;;;13.30;99.90;;;;;;5056043;28;20043;-77
2022/05/24 05:04:38;;;;;;;1999.90;999.90;;;13.40;99.90;;;;;;5069442;28;20067;-77
2022/05/24 05:07:05;;;;;;;1999.90;999.90;;;13.40;99.90;;;;;;5053111;28;20102;-77
2022/05/24 05:09:34;;;;;;;1999.90;999.90;;;13.40;99.90;;;;;;5070123;28;20047;-77
2022/05/24 05:12:08;;;;;;;1999.90;999.90;;;13.40;99.90;;;;;;5083451;28;20043;-77
2022/05/24 05:14:35;;;;;;;1999.90;999.90;;;13.50;99.90;;;;;;5055818;28;20048;-77
2022/05/24 05:17:01;;;;;;;1999.90;999.90;;;13.50;99.90;;;;;;5041818;28;20040;-77
2022/05/24 05:19:27;;;;;;;1999.90;999.90;;;13.60;99.90;;;;;;5052910;28;20039;-77
2022/05/24 05:21:54;;;;;;;1999.90;999.90;;;13.60;99.90;;;;;;5053703;28;20355;-77
2022/05/24 05:24:20;;;;;;;1999.90;999.90;;;13.70;99.90;;;;;;5068052;28;20164;-77
2022/05/24 05:26:45;;;;;;;1999.90;999.90;;;13.70;99.90;;;;;;5063143;28;20171;-77
2022/05/24 05:29:11;;;;;;;1999.90;999.90;;;13.70;99.90;;;;;;5066375;28;20036;-77
2022/05/24 05:31:36;;;;;;;1999.90;999.90;;;13.70;99.90;;;;;;5070508;28;20140;-77
2022/05/24 05:34:02;;;;;;;1999.90;999.90;;;13.70;99.90;;;;;;5048015;28;20044;-78
2022/05/24 05:36:30;;;;;;;1999.90;999.90;;;13.60;99.90;;;;;;5055422;28;20124;-79
2022/05/24 05:38:57;;;;;;;1999.90;999.90;;;13.60;99.90;;;;;;5066867;28;20047;-78
2022/05/24 05:41:28;;;;;;;1999.90;999.90;;;13.50;99.90;;;;;;5069381;28;20127;-77
2022/05/24 05:43:59;;;;;;;1999.90;999.90;;;13.50;99.90;;;;;;5037410;28;20076;-77
2022/05/24 05:46:25;;;;;;;1999.90;999.90;;;13.50;99.90;;;;;;5071836;28;20047;-77
2022/05/24 05:48:51;;;;;;;1999.90;999.90;;;13.40;99.90;;;;;;5068939;28;20072;-76
2022/05/24 05:51:18;;;;;;;1999.90;999.90;;;13.40;99.90;;;;;;5068230;28;20087;-76
2022/05/24 05:53:45;;;;;;;1999.90;999.90;;;13.40;99.90;;;;;;5053477;28;20048;-76
2022/05/24 05:56:17;;;;;;;1999.90;999.90;;;13.30;99.90;;;;;;5070636;28;20048;-76
2022/05/24 05:58:43;;;;;;;1999.90;999.90;;;13.30;99.90;;;;;;5063135;28;20079;-77
2022/05/24 06:01:20;;;;;;;1999.90;999.90;;;13.20;99.90;;;;;;5054346;28;20032;-75
2022/05/24 06:03:46;;;;;;;1999.90;999.90;;;13.10;99.90;;;;;;5051288;28;20535;-77
2022/05/24 06:06:20;;;;;;;1999.90;999.90;;;13.10;99.90;;;;;;5050639;28;20505;-77
2022/05/24 06:08:46;;;;;;;1999.90;999.90;;;13.10;99.90;;;;;;5053166;28;20044;-77
2022/05/24 06:11:11;;;;;;;1999.90;999.90;;;13.00;99.90;;;;;;5060524;28;20044;-78
2022/05/24 06:13:37;;;;;;;1999.90;999.90;;;13.00;99.90;;;;;;5053983;28;20079;-77
2022/05/24 06:16:03;;;;;;;1999.90;999.90;;;13.00;99.90;;;;;;5069661;28;20044;-78
2022/05/24 06:18:28;;;;;;;1999.90;999.90;;;13.00;99.90;;;;;;5071237;28;20039;-77
2022/05/24 06:20:54;;;;;;;1999.90;999.90;;;13.00;99.90;;;;;;5053865;28;20493;-77
2022/05/24 06:23:19;;;;;;;1999.90;999.90;;;13.00;99.90;;;;;;5065029;28;20044;-78
2022/05/24 06:25:45;;;;;;;1999.90;999.90;;;13.00;99.90;;;;;;5050047;28;20119;-77
2022/05/24 06:28:13;;;;;;;1999.90;999.90;;;13.00;99.90;;;;;;5034670;28;20040;-78
2022/05/24 06:30:39;;;;;;;1999.90;999.90;;;13.00;99.90;;;;;;5033669;28;20051;-77
2022/05/24 06:33:04;;;;;;;1999.90;999.90;;;13.00;99.90;;;;;;5051467;28;20409;-77
2022/05/24 06:35:30;;;;;;;1999.90;999.90;;;13.00;99.90;;;;;;5048077;28;20041;-77
2022/05/24 06:37:56;;;;;;;1999.90;999.90;;;13.00;99.90;;;;;;5027260;28;20040;-78
2022/05/24 06:40:22;;;;;;;1999.90;999.90;;;13.00;99.90;;;;;;5071354;28;20135;-78
2022/05/24 06:42:47;;;;;;;1999.90;999.90;;;13.00;99.90;;;;;;5054372;28;20051;-77
2022/05/24 06:45:14;;;;;;;1999.90;999.90;;;13.10;99.90;;;;;;5028074;28;20045;-77
2022/05/24 06:47:40;;;;;;;1999.90;999.90;;;13.20;99.90;;;;;;5049671;28;20039;-78
2022/05/24 06:50:07;;;;;;;1999.90;999.90;;;13.30;99.90;;;;;;5033898;28;20533;-79
2022/05/24 06:52:33;;;;;;;1999.90;999.90;;;13.40;99.90;;;;;;5040610;28;20048;-79
2022/05/24 06:54:59;;;;;;;1999.90;999.90;;;13.50;99.90;;;;;;5047718;28;20079;-77
2022/05/24 06:57:24;;;;;;;1999.90;999.90;;;13.60;99.90;;;;;;5031232;28;20072;-77
2022/05/24 07:02:34;;;;;;;1999.90;999.90;;;13.90;99.90;;;;;;5039825;28;20782;-78
2022/05/24 07:05:13;;;;;;;1999.90;999.90;;;13.90;99.90;;;;;;5047696;28;20659;-78
2022/05/24 07:07:38;;;;;;;1999.90;999.90;;;14.00;99.90;;;;;;5036319;28;20090;-78
2022/05/24 07:10:07;;;;;;;1999.90;999.90;;;14.10;99.90;;;;;;5070997;28;20051;-78
2022/05/24 07:12:33;;;;;;;1999.90;999.90;;;14.10;99.90;;;;;;5034138;28;20141;-78
2022/05/24 07:14:59;;;;;;;1999.90;999.90;;;14.30;99.90;;;;;;5050807;28;20516;-77
2022/05/24 07:17:25;;;;;;;1999.90;999.90;;;14.30;99.90;;;;;;5046847;28;20044;-79
2022/05/24 07:19:51;;;;;;;1999.90;999.90;;;14.20;99.90;;;;;;5031608;28;20517;-78
2022/05/24 07:22:17;;;;;;;1999.90;999.90;;;14.30;99.90;;;;;;5044254;28;20063;-77
2022/05/24 07:24:47;;;;;;;1999.90;999.90;;;14.30;99.90;;;;;;5028297;28;20432;-80
2022/05/24 07:27:13;;;;;;;1999.90;999.90;;;14.30;99.90;;;;;;5050503;28;20386;-79
2022/05/24 07:29:39;;;;;;;1999.90;999.90;;;14.20;99.90;;;;;;5032520;28;20048;-79
2022/05/24 07:32:05;;;;;;;1999.90;999.90;;;14.10;99.90;;;;;;5025252;28;20055;-78
2022/05/24 07:34:32;;;;;;;1999.90;999.90;;;14.10;99.90;;;;;;5045145;28;20028;-78
2022/05/24 07:37:00;;;;;;;1999.90;999.90;;;14.00;99.90;;;;;;5033822;28;20451;-77
2022/05/24 07:39:26;;;;;;;1999.90;999.90;;;14.00;99.90;;;;;;5033450;28;20131;-78
2022/05/24 07:47:20;;;;;;;1999.90;999.90;;;13.90;99.90;;;;;;5065073;28;20040;-78
2022/05/24 07:49:46;;;;;;;1999.90;999.90;;;13.80;99.90;;;;;;5054396;28;20569;-77
2022/05/24 07:52:11;;;;;;;1999.90;999.90;;;13.70;99.90;;;;;;5030037;28;20059;-78
2022/05/24 07:54:37;;;;;;;1999.90;999.90;;;13.60;99.90;;;;;;5064825;28;20516;-76
2022/05/24 07:57:03;;;;;;;1999.90;999.90;;;13.60;99.90;;;;;;5053718;28;20138;-78
2022/05/24 07:59:29;;;;;;;1999.90;999.90;;;13.50;99.90;;;;;;5046386;28;20060;-77
2022/05/24 08:01:55;;;;;;;1999.90;999.90;;;13.40;99.90;;;;;;5030905;28;20041;-78
2022/05/24 08:04:21;;;;;;;1999.90;999.90;;;13.40;99.90;;;;;;5030383;28;20406;-78
2022/05/24 08:06:46;;;;;;;1999.90;999.90;;;13.30;99.90;;;;;;5023919;28;20166;-78
2022/05/24 08:09:12;;;;;;;1999.90;999.90;;;13.30;99.90;;;;;;5033101;28;20044;-79
2022/05/24 08:11:38;;;;;;;1999.90;999.90;;;13.30;99.90;;;;;;5038249;28;20039;-78
2022/05/24 08:14:04;;;;;;;1999.90;999.90;;;13.20;99.90;;;;;;5066961;28;20186;-76
2022/05/24 08:16:32;;;;;;;1999.90;999.90;;;13.20;99.90;;;;;;5044980;28;20044;-76
2022/05/24 08:18:58;;;;;;;1999.90;999.90;;;13.10;99.90;;;;;;5070006;28;20045;-77
2022/05/24 08:21:25;;;;;;;1999.90;999.90;;;13.10;99.90;;;;;;5052946;28;20796;-76
2022/05/24 08:23:50;;;;;;;1999.90;999.90;;;13.20;99.90;;;;;;5067915;28;20514;-77
2022/05/24 08:26:16;;;;;;;1999.90;999.90;;;13.30;99.90;;;;;;5070151;28;20050;-76
2022/05/24 08:28:43;;;;;;;1999.90;999.90;;;13.30;99.90;;;;;;5055288;28;20045;-76
2022/05/24 08:31:09;;;;;;;1999.90;999.90;;;13.40;99.90;;;;;;5036899;28;20083;-77
2022/05/24 08:33:36;;;;;;;1999.90;999.90;;;13.40;99.90;;;;;;5017216;28;20048;-77
2022/05/24 08:36:02;;;;;;;1999.90;999.90;;;13.40;99.90;;;;;;5045275;28;20111;-77
2022/05/24 08:38:28;;;;;;;1999.90;999.90;;;13.30;99.90;;;;;;5036570;28;20127;-76
2022/05/24 08:41:00;;;;;;;1999.90;999.90;;;13.30;99.90;;;;;;5036303;28;20067;-77
2022/05/24 08:43:38;;;;;;;1999.90;999.90;;;13.50;99.90;;;;;;5053273;28;20060;-77
2022/05/24 08:49:17;;;;;;;1999.90;999.90;;;13.80;99.90;;;;;;4972570;28;20452;-79
2022/05/24 08:51:49;;;;;;;1999.90;999.90;;;13.90;99.90;;;;;;4957110;28;20145;-78
2022/05/24 08:54:39;;;;;;;1999.90;999.90;;;13.90;99.90;;;;;;4973041;28;20166;-78
2022/05/24 08:57:10;;;;;;;1999.90;999.90;;;13.70;99.90;;;;;;4972918;28;20144;-78
2022/05/24 08:59:48;;;;;;;1999.90;999.90;;;13.60;99.90;;;;;;4972007;28;20129;-78
2022/05/24 09:02:14;;;;;;;1999.90;999.90;;;13.70;99.90;;;;;;4973002;28;20050;-78
2022/05/24 09:04:40;;;;;;;1999.90;999.90;;;13.90;99.90;;;;;;4956301;28;20035;-79
2022/05/24 09:07:13;;;;;;;1999.90;999.90;;;14.10;99.90;;;;;;4972240;28;20544;-78
2022/05/24 09:09:43;;;;;;;1999.90;999.90;;;14.10;99.90;;;;;;4972836;28;20050;-78
2022/05/24 09:12:25;;;;;;;1999.90;999.90;;;14.00;99.90;;;;;;4973239;28;20057;-79
2022/05/24 09:15:18;;;;;;;1999.90;999.90;;;13.70;99.90;;;;;;4972780;28;20050;-78
2022/05/24 09:17:49;;;;;;;;;;;13.40;99.90;;;;;;4969647;28;20078;-77
2022/05/24 09:20:24;;;;;;;1999.90;999.90;;;13.20;99.90;;;;;;5014420;28;19950;-78
2022/05/24 09:23:01;;;;;;;1999.90;999.90;;;13.10;99.90;;;;;;5033128;28;20041;-81
2022/05/24 09:25:27;;;;;;;1999.90;999.90;;;13.00;99.90;;;;;;5052582;28;20056;-78
2022/05/24 09:27:55;;;;;;;1999.90;999.90;;;13.00;99.90;;;;;;5052728;28;20044;-77
2022/05/24 09:30:35;;;;;;;1999.90;999.90;;;13.10;99.90;;;;;;5066138;28;20564;-78
2022/05/24 09:33:22;;;;;;;1999.90;999.90;;;13.30;99.90;;;;;;5055900;28;20050;-77
2022/05/24 09:35:51;;;;;;;1999.90;999.90;;;13.50;99.90;;;;;;5051560;28;20117;-78
2022/05/24 09:38:18;;;;;;;1999.90;999.90;;;13.70;99.90;;;;;;5053509;28;20056;-79
2022/05/24 09:40:54;;;;;;;1999.90;999.90;;;13.80;99.90;;;;;;5066976;28;20051;-78
2022/05/24 09:43:26;;;;;;;1999.90;999.90;;;13.90;99.90;;;;;;5072333;28;20039;-78
2022/05/24 09:46:19;;;;;;;1999.90;999.90;;;14.00;99.90;;;;;;5056029;28;20105;-77
2022/05/24 09:49:01;;;;;;;1999.90;999.90;;;14.10;99.90;;;;;;5052309;28;20463;-77
2022/05/24 09:51:42;;;;;;;1999.90;999.90;;;14.20;99.90;;;;;;5069348;28;20037;-77
2022/05/24 09:54:21;;;;;;;1999.90;999.90;;;14.50;99.90;;;;;;5052399;28;20501;-78
2022/05/24 09:57:09;;;;;;;1999.90;999.90;;;14.70;99.90;;;;;;5051910;28;20040;-76
2022/05/24 09:59:39;;;;;;;1999.90;999.90;;;14.80;99.90;;;;;;5036292;28;20049;-76
2022/05/24 10:02:27;;;;;;;1999.90;999.90;;;15.00;99.90;;;;;;5035891;28;20540;-79
2022/05/24 10:04:52;;;;;;;1999.90;999.90;;;15.20;99.90;;;;;;5052940;28;20036;-77
2022/05/24 10:07:31;;;;;;;1999.90;999.90;;;15.20;99.90;;;;;;5056500;28;20034;-78
2022/05/24 10:10:02;;;;;;;1999.90;999.90;;;15.10;99.90;;;;;;5072317;28;20040;-78
2022/05/24 10:12:55;;;;;;;1999.90;999.90;;;14.90;99.90;;;;;;5065530;28;20065;-77
2022/05/24 10:15:30;;;;;;;1999.90;999.90;;;14.70;99.90;;;;;;5073885;28;20079;-78
2022/05/24 10:18:27;;;;;;;1999.90;999.90;;;14.60;99.90;;;;;;5041601;28;20040;-78
2022/05/24 10:21:02;;;;;;;1999.90;999.90;;;14.80;99.90;;;;;;5049669;28;20040;-79
2022/05/24 10:23:48;;;;;;;1999.90;999.90;;;15.20;99.90;;;;;;5067323;28;20466;-77
2022/05/24 10:26:55;;;;;;;1999.90;999.90;;;15.00;99.90;;;;;;5068027;28;20044;-77
2022/05/24 10:30:06;;;;;;;1999.90;999.90;;;14.60;99.90;;;;;;5050688;28;20044;-78
2022/05/24 10:38:56;;;;;;;1999.90;999.90;;;13.80;99.90;;;;;;5037808;28;20106;-77
2022/05/24 10:41:33;;;;;;;1999.90;999.90;;;13.80;99.90;;;;;;5038820;28;20059;-78
2022/05/24 10:43:58;;;;;;;1999.90;999.90;;;13.90;99.90;;;;;;5082625;28;20047;-78
2022/05/24 10:46:30;;;;;;;1999.90;999.90;;;14.10;99.90;;;;;;5070049;28;20043;-77
2022/05/24 10:49:21;;;;;;;1999.90;999.90;;;14.40;99.90;;;;;;5066617;28;20046;-78
2022/05/24 10:52:12;;;;;;;1999.90;999.90;;;15.10;99.90;;;;;;5051256;28;20047;-77
2022/05/24 10:54:48;;;;;;;1999.90;999.90;;;15.80;99.90;;;;;;5068183;28;20047;-79
2022/05/24 10:57:26;;;;;;;1999.90;999.90;;;16.00;99.90;;;;;;5056630;28;20466;-78
2022/05/24 11:00:00;;;;;;;1999.90;999.90;;;15.80;99.90;;;;;;5057475;28;20036;-80
2022/05/24 11:02:34;;;;;;;1999.90;999.90;;;15.80;99.90;;;;;;5060057;28;20387;-81
2022/05/24 11:05:20;;;;;;;1999.90;999.90;;;15.60;99.90;;;;;;5046654;28;20071;-82
2022/05/24 11:07:56;;;;;;;1999.90;999.90;;;15.50;99.90;;;;;;5055838;28;20402;-81
2022/05/24 11:10:22;;;;;;;1999.90;999.90;;;15.40;99.90;;;;;;5045487;28;20051;-80
2022/05/24 11:12:54;;;;;;;1999.90;999.90;;;15.30;99.90;;;;;;5054702;28;20028;-82
2022/05/24 11:15:33;;;;;;;1999.90;999.90;;;15.30;99.90;;;;;;5038236;28;20041;-82
2022/05/24 11:18:03;;;;;;;1999.90;999.90;;;15.40;99.90;;;;;;5057729;28;20043;-81
2022/05/24 11:20:37;;;;;;;1999.90;999.90;;;15.40;99.90;;;;;;5063282;28;20769;-82
2022/05/24 11:23:21;;;;;;;1999.90;999.90;;;15.10;99.90;;;;;;5051505;28;20052;-80
2022/05/24 11:25:52;;;;;;;1999.90;999.90;;;14.80;99.90;;;;;;5053104;28;20041;-80
2022/05/24 11:28:23;;;;;;;1999.90;999.90;;;14.70;99.90;;;;;;5062201;28;20089;-79
2022/05/24 11:30:50;;;;;;;1999.90;999.90;;;14.90;99.90;;;;;;5072819;28;20047;-79
2022/05/24 11:33:39;;;;;;;1999.90;999.90;;;15.30;99.90;;;;;;5067608;28;20052;-82
2022/05/24 11:36:39;;;;;;;1999.90;999.90;;;15.60;99.90;;;;;;5071445;28;20067;-81
2022/05/24 11:39:15;;;;;;;1999.90;999.90;;;15.90;99.90;;;;;;5061506;28;20460;-80
2022/05/24 11:41:42;;;;;;;1999.90;999.90;;;15.80;99.90;;;;;;5049398;28;20068;-80
2022/05/24 11:44:28;;;;;;;1999.90;999.90;;;15.80;99.90;;;;;;5064882;28;20082;-82
2022/05/24 11:46:56;;;;;;;1999.90;999.90;;;15.80;99.90;;;;;;5056105;28;20040;-82
2022/05/24 11:49:21;;;;;;;1999.90;999.90;;;15.60;99.90;;;;;;5063904;28;20051;-81
2022/05/24 11:51:52;;;;;;;1999.90;999.90;;;15.40;99.90;;;;;;5049847;28;20041;-83
2022/05/24 11:54:18;;;;;;;1999.90;999.90;;;15.30;99.90;;;;;;5061903;28;20043;-82
2022/05/24 11:57:02;;;;;;;1999.90;999.90;;;15.60;99.90;;;;;;5068075;28;20073;-82
2022/05/24 11:59:48;;;;;;;1999.90;999.90;;;15.90;99.90;;;;;;5068617;28;20036;-82
2022/05/24 12:02:29;;;;;;;1999.90;999.90;;;15.90;99.90;;;;;;5042902;28;20045;-82
2022/05/24 12:07:57;;;;;;;1999.90;999.90;;;15.40;99.90;;;;;;5071831;28;20131;-82
2022/05/24 12:10:26;;;;;;;1999.90;999.90;;;15.10;99.90;;;;;;5055410;28;20056;-81
2022/05/24 12:12:57;;;;;;;1999.90;999.90;;;15.00;99.90;;;;;;5069661;28;20374;-80
2022/05/24 12:15:25;;;;;;;1999.90;999.90;;;15.20;99.90;;;;;;5067593;28;20182;-80
2022/05/24 12:18:12;;;;;;;1999.90;999.90;;;15.80;99.90;;;;;;5062384;28;20088;-81
2022/05/24 12:20:37;;;;;;;1999.90;999.90;;;16.10;99.90;;;;;;5074190;28;20040;-81
2022/05/24 12:23:22;;;;;;;1999.90;999.90;;;16.10;99.90;;;;;;5052998;28;20577;-79
2022/05/24 12:26:07;;;;;;;1999.90;999.90;;;16.00;99.90;;;;;;5054729;28;20098;-80
2022/05/24 12:28:36;;;;;;;1999.90;999.90;;;15.80;99.90;;;;;;5055148;28;20036;-84
2022/05/24 12:31:22;;;;;;;1999.90;999.90;;;15.50;99.90;;;;;;5057145;28;20036;-82
2022/05/24 12:33:56;;;;;;;1999.90;999.90;;;15.20;99.90;;;;;;5053073;28;20066;-81
2022/05/24 12:36:28;;;;;;;1999.90;999.90;;;15.10;99.90;;;;;;5057348;28;20042;-81
2022/05/24 12:39:08;;;;;;;1999.90;999.90;;;15.30;99.90;;;;;;5056509;28;20041;-80
2022/05/24 12:41:38;;;;;;;1999.90;999.90;;;15.60;99.90;;;;;;5049483;28;20036;-81
2022/05/24 12:44:12;;;;;;;1999.90;999.90;;;15.90;99.90;;;;;;5046948;28;20110;-81